createdAt,value
2018-11-25T00:00:34.258Z,40.23
2018-11-25T00:03:03.688Z,32.87
2018-11-25T00:05:32.762Z,30.37
2018-11-25T00:08:01.823Z,31.33
2018-11-25T00:10:30.885Z,33.87
2018-11-25T00:12:59.992Z,36.70
2018-11-25T00:15:29.108Z,38.00
2018-11-25T00:17:58.213Z,34.77
2018-11-25T00:20:27.997Z,40.23
2018-11-25T00:22:57.154Z,42.03
2018-11-25T00:25:26.175Z,62.90
2018-11-25T00:27:55.266Z,44.97
2018-11-25T00:30:24.950Z,43.00
2018-11-25T00:32:54.111Z,55.77
2018-11-25T00:35:29.505Z,56.63
2018-11-25T00:37:58.550Z,72.77
2018-11-25T00:40:27.658Z,56.90
2018-11-25T00:42:56.697Z,57.93
2018-11-25T00:45:25.776Z,53.90
2018-11-25T00:47:54.808Z,47.00
2018-11-25T00:50:23.936Z,51.87
2018-11-25T00:52:53.272Z,47.47
2018-11-25T00:55:22.436Z,44.87
2018-11-25T00:57:52.146Z,42.57
2018-11-25T01:00:21.236Z,45.23
2018-11-25T01:02:50.818Z,40.83
2018-11-25T01:05:19.947Z,38.90
2018-11-25T01:07:49.053Z,41.53
2018-11-25T01:10:18.158Z,37.53
2018-11-25T01:12:47.350Z,37.90
2018-11-25T01:15:18.242Z,37.10
2018-11-25T01:17:57.187Z,34.53
2018-11-25T01:20:26.226Z,35.33
2018-11-25T01:22:56.146Z,35.00
2018-11-25T01:25:25.473Z,34.13
2018-11-25T01:27:54.516Z,35.47
2018-11-25T01:30:23.661Z,36.73
2018-11-25T01:32:52.781Z,33.87
2018-11-25T01:35:21.865Z,27.53
2018-11-25T01:37:50.941Z,29.73
2018-11-25T01:40:21.141Z,27.77
2018-11-25T01:42:50.232Z,30.23
2018-11-25T01:45:19.293Z,33.30
2018-11-25T01:47:49.017Z,31.97
2018-11-25T01:50:18.713Z,33.90
2018-11-25T01:52:47.953Z,31.73
2018-11-25T01:55:18.666Z,34.40
2018-11-25T01:57:47.799Z,36.33
2018-11-25T02:00:17.983Z,40.00
2018-11-25T02:02:47.091Z,34.83
2018-11-25T02:05:16.247Z,38.20
2018-11-25T02:07:45.334Z,37.33
2018-11-25T02:10:16.486Z,38.97
2018-11-25T02:12:45.577Z,37.97
2018-11-25T02:15:15.691Z,44.73
2018-11-25T02:17:44.843Z,48.13
2018-11-25T02:20:17.499Z,43.37
2018-11-25T02:22:46.660Z,43.40
2018-11-25T02:25:15.944Z,49.00
2018-11-25T02:27:45.022Z,50.67
2018-11-25T02:30:15.604Z,45.33
2018-11-25T02:32:44.873Z,44.83
2018-11-25T02:35:14.637Z,52.97
2018-11-25T02:37:44.097Z,41.23
2018-11-25T02:40:13.895Z,48.13
2018-11-25T02:42:42.934Z,49.33
2018-11-25T02:45:15.868Z,47.23
2018-11-25T02:47:44.999Z,47.13
2018-11-25T02:50:26.329Z,44.17
2018-11-25T02:52:58.447Z,39.27
2018-11-25T02:55:28.608Z,40.33
2018-11-25T02:57:57.704Z,45.23
2018-11-25T03:00:26.743Z,36.50
2018-11-25T03:02:55.822Z,34.07
2018-11-25T03:05:24.989Z,37.33
2018-11-25T03:07:54.688Z,42.00
2018-11-25T03:10:24.389Z,36.23
2018-11-25T03:12:53.557Z,34.10
2018-11-25T03:15:22.615Z,32.60
2018-11-25T03:17:51.757Z,35.53
2018-11-25T03:20:20.878Z,33.10
2018-11-25T03:22:49.951Z,37.23
2018-11-25T03:25:20.060Z,34.93
2018-11-25T03:27:49.336Z,33.67
2018-11-25T03:30:19.409Z,33.80
2018-11-25T03:32:49.503Z,34.83
2018-11-25T03:35:18.612Z,31.70
2018-11-25T03:37:47.851Z,29.80
2018-11-25T03:40:17.924Z,29.00
2018-11-25T03:42:47.059Z,30.37
2018-11-25T03:45:19.029Z,31.20
2018-11-25T03:47:48.879Z,29.23
2018-11-25T03:50:18.169Z,29.53
2018-11-25T03:52:47.744Z,27.80
2018-11-25T03:55:17.549Z,28.03
2018-11-25T03:57:46.727Z,27.37
2018-11-25T04:00:19.342Z,30.30
2018-11-25T04:02:49.263Z,28.37
2018-11-25T04:05:19.430Z,23.70
2018-11-25T04:07:48.593Z,26.47
2018-11-25T04:10:18.639Z,24.70
2018-11-25T04:12:47.845Z,30.43
2018-11-25T04:15:17.711Z,30.77
2018-11-25T04:17:47.373Z,30.67
2018-11-25T04:20:17.396Z,26.73
2018-11-25T04:22:46.541Z,25.33
2018-11-25T04:25:15.630Z,29.80
2018-11-25T04:27:44.731Z,28.30
2018-11-25T04:30:15.910Z,26.37
2018-11-25T04:32:46.502Z,30.67
2018-11-25T04:35:15.583Z,28.60
2018-11-25T04:37:44.700Z,30.83
2018-11-25T04:40:15.638Z,32.40
2018-11-25T04:42:44.736Z,35.43
2018-11-25T04:45:14.683Z,33.17
2018-11-25T04:47:44.335Z,33.10
2018-11-25T04:50:17.461Z,30.23
2018-11-25T04:52:46.611Z,32.10
2018-11-25T04:55:15.749Z,31.77
2018-11-25T04:57:47.333Z,23.87
2018-11-25T05:00:16.445Z,25.70
2018-11-25T05:02:45.485Z,27.77
2018-11-25T05:05:15.291Z,30.03
2018-11-25T05:07:44.539Z,29.33
2018-11-25T05:10:14.610Z,28.30
2018-11-25T05:12:43.781Z,28.93
2018-11-25T05:15:17.145Z,26.43
2018-11-25T05:19:44.555Z,29.73
2018-11-25T05:22:14.083Z,26.37
2018-11-25T05:24:43.677Z,31.03
2018-11-25T05:27:12.896Z,28.07
2018-11-25T05:29:42.075Z,31.87
2018-11-25T05:32:11.291Z,33.23
2018-11-25T05:34:40.648Z,38.07
2018-11-25T05:37:09.756Z,37.27
2018-11-25T05:39:39.240Z,41.07
2018-11-25T05:42:09.451Z,39.60
2018-11-25T05:44:39.731Z,29.97
2018-11-25T05:47:08.884Z,33.37
2018-11-25T05:49:38.166Z,27.37
2018-11-25T05:52:08.008Z,27.63
2018-11-25T05:54:37.076Z,25.63
2018-11-25T05:57:06.601Z,27.40
2018-11-25T05:59:36.309Z,25.97
2018-11-25T06:02:05.987Z,27.90
2018-11-25T06:04:35.391Z,25.63
2018-11-25T06:07:04.655Z,26.37
2018-11-25T06:09:33.773Z,21.53
2018-11-25T06:12:02.925Z,26.07
2018-11-25T06:14:32.263Z,27.77
2018-11-25T06:17:01.468Z,26.73
2018-11-25T06:19:31.177Z,29.77
2018-11-25T06:22:00.305Z,61.70
2018-11-25T06:24:29.481Z,76.03
2018-11-25T06:26:58.540Z,52.93
2018-11-25T06:29:28.363Z,69.50
2018-11-25T06:31:58.234Z,47.23
2018-11-25T06:34:27.977Z,44.83
2018-11-25T06:36:57.499Z,36.73
2018-11-25T06:39:26.656Z,36.50
2018-11-25T06:41:55.891Z,62.97
2018-11-25T06:44:25.551Z,110.57
2018-11-25T06:46:54.995Z,105.50
2018-11-25T06:49:25.098Z,184.80
2018-11-25T06:51:54.351Z,82.53
2018-11-25T06:54:23.582Z,43.93
2018-11-25T06:56:52.806Z,40.73
2018-11-25T06:59:22.111Z,42.47
2018-11-25T07:01:51.203Z,42.73
2018-11-25T07:04:20.568Z,39.77
2018-11-25T07:06:49.818Z,42.67
2018-11-25T07:09:20.039Z,35.20
2018-11-25T07:11:49.150Z,41.93
2018-11-25T07:14:18.843Z,42.17
2018-11-25T07:16:47.950Z,37.57
2018-11-25T07:19:17.398Z,55.00
2018-11-25T07:21:46.653Z,53.13
2018-11-25T07:24:15.811Z,43.20
2018-11-25T07:26:45.003Z,47.63
2018-11-25T07:29:14.188Z,47.30
2018-11-25T07:31:43.383Z,53.80
2018-11-25T07:34:12.554Z,51.50
2018-11-25T07:36:41.722Z,48.87
2018-11-25T07:39:10.810Z,60.47
2018-11-25T07:41:40.493Z,175.43
2018-11-25T07:44:09.595Z,49.47
2018-11-25T07:46:39.905Z,46.27
2018-11-25T07:49:09.048Z,45.20
2018-11-25T07:51:38.539Z,40.77
2018-11-25T07:54:07.675Z,42.90
2018-11-25T07:56:37.641Z,42.13
2018-11-25T07:59:07.069Z,39.80
2018-11-25T08:01:36.164Z,39.20
2018-11-25T08:04:06.634Z,36.73
2018-11-25T08:06:36.432Z,34.53
2018-11-25T08:09:07.845Z,34.77
2018-11-25T08:11:38.374Z,35.47
2018-11-25T08:14:07.551Z,33.47
2018-11-25T08:16:36.666Z,28.53
2018-11-25T08:19:06.812Z,35.60
2018-11-25T08:21:36.460Z,30.27
2018-11-25T08:24:08.008Z,30.10
2018-11-25T08:26:37.392Z,31.13
2018-11-25T08:29:07.445Z,30.10
2018-11-25T08:31:36.850Z,32.07
2018-11-25T08:34:06.051Z,32.53
2018-11-25T08:36:35.106Z,30.67
2018-11-25T08:39:06.296Z,28.17
2018-11-25T08:41:35.725Z,26.00
2018-11-25T08:44:04.905Z,24.23
2018-11-25T08:46:34.165Z,26.40
2018-11-25T08:49:03.379Z,20.90
2018-11-25T08:51:32.561Z,22.50
2018-11-25T08:54:01.649Z,21.97
2018-11-25T08:56:31.607Z,22.30
2018-11-25T08:59:01.600Z,25.73
2018-11-25T09:01:30.864Z,23.97
2018-11-25T09:04:00.048Z,28.77
2018-11-25T09:06:29.117Z,29.53
2018-11-25T09:08:58.244Z,48.40
2018-11-25T09:11:27.356Z,29.77
2018-11-25T09:13:56.586Z,24.40
2018-11-25T09:16:25.831Z,25.10
2018-11-25T09:18:55.913Z,29.40
2018-11-25T09:21:25.175Z,26.50
2018-11-25T09:23:55.624Z,25.50
2018-11-25T09:26:24.718Z,27.13
2018-11-25T09:28:54.150Z,27.37
2018-11-25T09:31:23.339Z,18.30
2018-11-25T09:33:53.886Z,21.37
2018-11-25T09:36:23.227Z,20.57
2018-11-25T09:38:52.358Z,19.67
2018-11-25T09:41:21.446Z,18.73
2018-11-25T09:43:50.623Z,21.20
2018-11-25T09:46:19.746Z,21.37
2018-11-25T09:48:48.866Z,18.73
2018-11-25T09:51:18.404Z,17.00
2018-11-25T09:53:48.302Z,17.10
2018-11-25T09:56:17.499Z,18.83
2018-11-25T09:58:47.228Z,19.83
2018-11-25T10:01:16.436Z,19.40
2018-11-25T10:03:45.550Z,18.13
2018-11-25T10:06:14.863Z,19.60
2018-11-25T10:08:44.210Z,18.57
2018-11-25T10:11:13.674Z,17.93
2018-11-25T10:13:44.095Z,16.40
2018-11-25T10:16:13.255Z,15.33
2018-11-25T10:18:43.225Z,16.90
2018-11-25T10:21:13.517Z,17.07
2018-11-25T10:23:44.212Z,18.90
2018-11-25T10:26:16.442Z,17.80
2018-11-25T10:28:49.410Z,16.80
2018-11-25T10:31:18.932Z,16.97
2018-11-25T10:33:48.261Z,16.93
2018-11-25T10:36:18.445Z,15.93
2018-11-25T10:38:48.632Z,17.23
2018-11-25T10:41:19.171Z,14.40
2018-11-25T10:43:48.260Z,15.23
2018-11-25T10:46:18.289Z,26.67
2018-11-25T10:48:48.496Z,55.03
2018-11-25T10:51:18.094Z,17.43
2018-11-25T10:53:47.228Z,16.77
2018-11-25T10:56:16.876Z,16.33
2018-11-25T10:58:45.465Z,19.73
2018-11-25T11:01:20.044Z,15.30
2018-11-25T11:03:55.589Z,18.50
2018-11-25T11:06:31.284Z,14.47
2018-11-25T11:09:00.382Z,15.20
2018-11-25T11:11:30.312Z,14.97
2018-11-25T11:13:59.573Z,16.03
2018-11-25T11:16:29.086Z,14.57
2018-11-25T11:18:58.371Z,13.33
2018-11-25T11:21:28.088Z,16.27
2018-11-25T11:23:57.148Z,15.83
2018-11-25T11:26:26.941Z,16.40
2018-11-25T11:28:56.060Z,16.00
2018-11-25T11:31:25.256Z,17.63
2018-11-25T11:33:55.167Z,12.70
2018-11-25T11:36:25.381Z,15.50
2018-11-25T11:38:54.591Z,15.00
2018-11-25T11:41:23.923Z,15.07
2018-11-25T11:43:52.994Z,13.57
2018-11-25T11:46:22.690Z,14.17
2018-11-25T11:48:51.373Z,14.77
2018-11-25T11:51:25.467Z,14.40
2018-11-25T11:53:49.911Z,13.63
2018-11-25T11:56:19.172Z,14.87
2018-11-25T11:58:48.334Z,16.50
2018-11-25T12:01:17.883Z,14.13
2018-11-25T12:03:47.004Z,13.20
2018-11-25T12:06:16.286Z,12.57
2018-11-25T12:08:46.263Z,14.40
2018-11-25T12:11:15.719Z,11.53
2018-11-25T12:13:44.994Z,12.33
2018-11-25T12:16:14.253Z,10.27
2018-11-25T12:18:43.610Z,13.03
2018-11-25T12:21:12.701Z,13.40
2018-11-25T12:23:41.784Z,15.70
2018-11-25T12:26:10.979Z,13.27
2018-11-25T12:28:40.431Z,13.07
2018-11-25T12:31:09.516Z,12.67
2018-11-25T12:33:39.515Z,14.53
2018-11-25T12:36:09.414Z,12.93
2018-11-25T12:38:38.722Z,12.67
2018-11-25T12:41:08.623Z,14.40
2018-11-25T12:43:37.942Z,14.47
2018-11-25T12:46:07.208Z,11.63
2018-11-25T12:48:36.397Z,13.87
2018-11-25T12:51:06.134Z,13.27
2018-11-25T12:53:35.240Z,18.93
2018-11-25T12:56:04.959Z,11.97
2018-11-25T12:58:34.207Z,13.17
2018-11-25T13:01:04.022Z,13.70
2018-11-25T13:03:33.622Z,12.63
2018-11-25T13:06:03.106Z,13.67
2018-11-25T13:08:33.505Z,11.73
2018-11-25T13:11:02.974Z,12.47
2018-11-25T13:13:32.292Z,12.53
2018-11-25T13:16:01.442Z,12.37
2018-11-25T13:18:33.995Z,13.00
2018-11-25T13:21:03.474Z,12.63
2018-11-25T13:23:33.210Z,15.60
2018-11-25T13:26:02.607Z,14.00
2018-11-25T13:28:31.844Z,15.73
2018-11-25T13:31:01.046Z,15.10
2018-11-25T13:33:32.351Z,18.43
2018-11-25T13:36:01.890Z,16.27
2018-11-25T13:38:31.645Z,17.33
2018-11-25T13:41:00.681Z,17.20
2018-11-25T13:43:30.480Z,15.80
2018-11-25T13:46:00.609Z,16.70
2018-11-25T13:48:31.153Z,14.17
2018-11-25T13:51:06.303Z,14.80
2018-11-25T13:53:36.336Z,17.00
2018-11-25T13:56:07.861Z,13.37
2018-11-25T13:58:37.821Z,12.40
2018-11-25T14:01:08.826Z,13.67
2018-11-25T14:03:40.081Z,13.07
2018-11-25T14:06:12.745Z,17.90
2018-11-25T14:08:42.568Z,16.70
2018-11-25T14:11:14.376Z,16.83
2018-11-25T14:13:45.357Z,14.20
2018-11-25T14:16:19.395Z,17.37
2018-11-25T14:18:49.127Z,14.63
2018-11-25T14:21:20.432Z,16.23
2018-11-25T14:23:50.361Z,14.80
2018-11-25T14:26:24.548Z,14.50
2018-11-25T14:28:53.746Z,16.57
2018-11-25T14:31:25.383Z,17.40
2018-11-25T14:33:55.168Z,20.80
2018-11-25T14:36:25.319Z,17.17
2018-11-25T14:38:56.250Z,17.67
2018-11-25T14:41:25.997Z,18.73
2018-11-25T14:43:56.186Z,19.57
2018-11-25T14:46:27.961Z,19.67
2018-11-25T14:48:58.092Z,17.57
2018-11-25T14:51:28.445Z,15.63
2018-11-25T14:53:58.250Z,14.47
2018-11-25T14:56:28.423Z,14.60
2018-11-25T14:58:58.285Z,19.23
2018-11-25T15:01:28.375Z,20.10
2018-11-25T15:03:59.583Z,18.60
2018-11-25T15:06:29.374Z,16.40
2018-11-25T15:08:59.110Z,16.67
2018-11-25T15:11:29.786Z,14.73
2018-11-25T15:13:59.188Z,17.77
2018-11-25T15:16:28.727Z,13.27
2018-11-25T15:18:58.743Z,15.10
2018-11-25T15:21:28.559Z,15.30
2018-11-25T15:23:57.698Z,14.47
2018-11-25T15:26:26.734Z,20.77
2018-11-25T15:28:56.392Z,18.93
2018-11-25T15:31:25.443Z,16.27
2018-11-25T15:33:54.721Z,20.23
2018-11-25T15:36:24.359Z,17.67
2018-11-25T15:38:53.662Z,19.37
2018-11-25T15:41:22.861Z,21.90
2018-11-25T15:43:52.006Z,19.03
2018-11-25T15:46:21.934Z,21.27
2018-11-25T15:48:51.244Z,22.07
2018-11-25T15:51:20.874Z,20.73
2018-11-25T15:53:50.009Z,21.50
2018-11-25T15:56:19.108Z,25.20
2018-11-25T15:58:49.180Z,25.63
2018-11-25T16:01:18.886Z,26.13
2018-11-25T16:03:48.090Z,30.13
2018-11-25T16:06:21.629Z,29.90
2018-11-25T16:08:50.666Z,34.57
2018-11-25T16:11:19.854Z,35.43
2018-11-25T16:13:48.918Z,39.77
2018-11-25T16:16:18.008Z,38.13
2018-11-25T16:18:47.071Z,34.73
2018-11-25T16:21:16.142Z,37.83
2018-11-25T16:23:45.805Z,35.87
2018-11-25T16:26:18.794Z,37.30
2018-11-25T16:28:49.486Z,35.37
2018-11-25T16:31:18.587Z,35.27
2018-11-25T16:33:47.695Z,39.80
2018-11-25T16:36:16.800Z,39.50
2018-11-25T16:38:45.952Z,37.13
2018-11-25T16:41:15.089Z,41.33
2018-11-25T16:43:45.588Z,38.83
2018-11-25T16:46:14.810Z,37.83
2018-11-25T16:48:43.843Z,40.53
2018-11-25T16:51:13.408Z,38.57
2018-11-25T16:53:42.566Z,41.57
2018-11-25T16:56:18.133Z,41.57
2018-11-25T16:58:47.381Z,40.10
2018-11-25T17:01:16.634Z,36.20
2018-11-25T17:03:46.711Z,41.23
2018-11-25T17:06:15.932Z,39.60
2018-11-25T17:08:46.030Z,42.77
2018-11-25T17:11:15.953Z,45.17
2018-11-25T17:13:45.203Z,40.73
2018-11-25T17:16:14.330Z,40.60
2018-11-25T17:18:43.841Z,41.30
2018-11-25T17:21:12.993Z,44.13
2018-11-25T17:23:42.089Z,39.73
2018-11-25T17:26:11.267Z,38.07
2018-11-25T17:28:40.436Z,39.90
2018-11-25T17:31:09.751Z,39.53
2018-11-25T17:33:39.313Z,44.73
2018-11-25T17:36:08.480Z,41.60
2018-11-25T17:38:37.607Z,40.03
2018-11-25T17:41:07.694Z,40.50
2018-11-25T17:43:36.935Z,42.53
2018-11-25T17:46:07.234Z,41.50
2018-11-25T17:48:36.393Z,40.97
2018-11-25T17:51:06.209Z,39.73
2018-11-25T17:53:38.922Z,44.57
2018-11-25T17:56:08.813Z,55.30
2018-11-25T17:58:38.914Z,44.17
2018-11-25T18:01:08.276Z,51.97
2018-11-25T18:03:38.862Z,53.30
2018-11-25T18:06:08.008Z,55.43
2018-11-25T18:08:37.322Z,42.17
2018-11-25T18:11:13.055Z,47.90
2018-11-25T18:13:42.415Z,47.23
2018-11-25T18:16:12.196Z,40.93
2018-11-25T18:18:46.376Z,43.57
2018-11-25T18:21:21.600Z,38.87
2018-11-25T18:23:50.754Z,43.93
2018-11-25T18:26:20.790Z,40.50
2018-11-25T18:28:50.240Z,38.53
2018-11-25T18:31:19.293Z,41.13
2018-11-25T18:33:48.400Z,40.47
2018-11-25T18:36:18.220Z,39.50
2018-11-25T18:38:47.904Z,36.97
2018-11-25T18:41:17.127Z,41.20
2018-11-25T18:43:46.316Z,40.53
2018-11-25T18:46:15.895Z,39.43
2018-11-25T18:48:46.628Z,38.13
2018-11-25T18:51:15.935Z,39.27
2018-11-25T18:53:45.094Z,38.13
2018-11-25T18:56:14.896Z,37.20
2018-11-25T18:58:43.970Z,37.63
2018-11-25T19:01:24.121Z,35.87
2018-11-25T19:03:53.280Z,33.73
2018-11-25T19:06:22.468Z,32.77
2018-11-25T19:08:51.606Z,35.13
2018-11-25T19:11:20.715Z,30.03
2018-11-25T19:13:49.919Z,33.30
2018-11-25T19:16:19.195Z,36.30
2018-11-25T19:18:48.493Z,34.03
2018-11-25T19:21:19.307Z,38.23
2018-11-25T19:23:50.247Z,39.23
2018-11-25T19:26:20.541Z,38.53
2018-11-25T19:28:50.427Z,33.97
2018-11-25T19:31:19.543Z,37.33
2018-11-25T19:33:48.647Z,33.70
2018-11-25T19:36:17.819Z,34.60
2018-11-25T19:38:47.593Z,28.73
2018-11-25T19:41:16.645Z,30.57
2018-11-25T19:43:46.032Z,29.70
2018-11-25T19:46:15.155Z,29.37
2018-11-25T19:48:44.300Z,27.77
2018-11-25T19:51:17.576Z,28.03
2018-11-25T19:53:43.101Z,26.07
2018-11-25T19:56:12.346Z,28.17
2018-11-25T19:58:41.578Z,28.80
2018-11-25T20:01:10.661Z,25.47
2018-11-25T20:03:39.891Z,27.70
2018-11-25T20:06:08.983Z,23.20
2018-11-25T20:08:38.701Z,24.63
2018-11-25T20:11:07.860Z,28.00
2018-11-25T20:13:38.243Z,27.00
2018-11-25T20:16:12.802Z,26.73
2018-11-25T20:18:42.484Z,26.27
2018-11-25T20:21:16.366Z,27.13
2018-11-25T20:23:45.522Z,27.97
2018-11-25T20:26:14.734Z,26.80
2018-11-25T20:28:43.983Z,26.00
2018-11-25T20:31:13.259Z,28.13
2018-11-25T20:33:52.211Z,24.50
2018-11-25T20:36:18.003Z,28.23
2018-11-25T20:38:52.416Z,23.30
2018-11-25T20:43:57.966Z,28.27
2018-11-25T20:46:32.347Z,26.27
2018-11-25T20:49:01.526Z,25.57
2018-11-25T20:51:36.055Z,27.80
2018-11-25T20:54:05.649Z,27.70
2018-11-25T20:56:34.773Z,26.93
2018-11-25T20:59:04.140Z,26.27
2018-11-25T21:01:33.270Z,27.60
2018-11-25T21:04:02.410Z,28.83
2018-11-25T21:06:31.640Z,29.97
2018-11-25T21:09:00.964Z,28.67
2018-11-25T21:11:30.697Z,31.37
2018-11-25T21:14:00.636Z,35.47
2018-11-25T21:16:30.581Z,31.30
2018-11-25T21:18:59.818Z,34.83
2018-11-25T21:21:29.126Z,32.40
2018-11-25T21:23:59.222Z,31.70
2018-11-25T21:26:28.541Z,34.03
2018-11-25T21:28:58.278Z,33.57
2018-11-25T21:31:27.445Z,35.80
2018-11-25T21:33:56.577Z,31.83
2018-11-25T21:36:25.627Z,34.57
2018-11-25T21:38:54.695Z,34.90
2018-11-25T21:41:23.790Z,32.07
2018-11-25T21:43:53.291Z,32.67
2018-11-25T21:46:23.767Z,33.33
2018-11-25T21:48:52.987Z,31.07
2018-11-25T21:51:22.762Z,31.13
2018-11-25T21:53:52.084Z,34.47
2018-11-25T21:56:21.335Z,33.17
2018-11-25T21:58:51.623Z,36.03
2018-11-25T22:01:20.855Z,37.07
2018-11-25T22:03:50.058Z,35.63
2018-11-25T22:06:19.171Z,35.57
2018-11-25T22:08:48.358Z,35.83
2018-11-25T22:11:17.553Z,36.77
2018-11-25T22:13:47.355Z,35.90
2018-11-25T22:16:16.642Z,39.33
2018-11-25T22:18:45.816Z,36.27
2018-11-25T22:21:15.079Z,38.27
2018-11-25T22:23:44.311Z,41.67
2018-11-25T22:26:13.986Z,40.50
2018-11-25T22:28:43.147Z,38.83
2018-11-25T22:31:12.268Z,35.87
2018-11-25T22:33:42.574Z,37.80
2018-11-25T22:36:12.797Z,35.83
2018-11-25T22:38:41.949Z,36.37
2018-11-25T22:41:11.061Z,37.90
2018-11-25T22:43:40.442Z,37.03
2018-11-25T22:46:09.702Z,38.60
2018-11-25T22:48:39.715Z,36.83
2018-11-25T22:51:10.049Z,37.07
2018-11-25T22:53:39.885Z,40.40
2018-11-25T22:56:11.762Z,39.60
2018-11-25T22:58:41.010Z,38.87
2018-11-25T23:01:10.197Z,35.07
2018-11-25T23:03:40.650Z,36.80
2018-11-25T23:06:21.269Z,34.77
2018-11-25T23:08:51.580Z,38.63
2018-11-25T23:11:20.815Z,38.13
2018-11-25T23:13:50.570Z,35.63
2018-11-25T23:16:19.880Z,37.77
2018-11-25T23:18:49.270Z,35.83
2018-11-25T23:21:19.362Z,38.97
2018-11-25T23:23:49.754Z,37.17
2018-11-25T23:26:18.870Z,38.03
2018-11-25T23:28:49.378Z,39.07
2018-11-25T23:31:21.136Z,40.13
2018-11-25T23:33:50.809Z,39.07
2018-11-25T23:36:20.004Z,37.90
2018-11-25T23:38:49.603Z,39.47
2018-11-25T23:41:23.535Z,39.13
2018-11-25T23:43:53.495Z,40.10
2018-11-25T23:46:23.150Z,42.17
2018-11-25T23:48:52.945Z,42.87
2018-11-25T23:51:22.266Z,39.20
2018-11-25T23:53:52.069Z,41.97
2018-11-25T23:56:22.069Z,39.77
2018-11-25T23:58:54.519Z,45.60
